Time;durP1;ratioP1;P1;durP2;ratioP2;P2;SDS_P1;SDS_P2;PMS_P1;PMS_P2;Temp;Humidity;BMP_temperature;BMP_pressure;BME280_temperature;BME280_humidity;BME280_pressure;Samples;Min_cycle;Max_cycle;Signal;HPM_P1;HPM_P2
2021/05/03 00:00:54;;;;;;;13.10;12.40;;;8.30;99.90;;;;;;5010415;28;20445;-67
2021/05/03 00:03:20;;;;;;;15.10;14.03;;;8.20;99.90;;;;;;5010533;28;20465;-68
2021/05/03 00:05:47;;;;;;;13.27;12.47;;;8.00;99.90;;;;;;5010601;28;20457;-67
2021/05/03 00:08:14;;;;;;;14.40;13.57;;;7.90;99.90;;;;;;5010309;28;20485;-67
2021/05/03 00:10:40;;;;;;;13.80;13.07;;;7.90;99.90;;;;;;5010180;28;20442;-67
2021/05/03 00:13:06;;;;;;;14.57;13.77;;;7.80;99.90;;;;;;5010347;28;20460;-67
2021/05/03 00:15:33;;;;;;;13.53;12.73;;;7.70;99.90;;;;;;5010632;28;20581;-67
2021/05/03 00:18:00;;;;;;;14.77;13.67;;;7.70;99.90;;;;;;5010138;28;20519;-67
2021/05/03 00:20:26;;;;;;;14.00;13.10;;;7.50;99.90;;;;;;5010004;28;20484;-67
2021/05/03 00:22:52;;;;;;;14.60;13.80;;;7.40;99.90;;;;;;5009982;28;20508;-67
2021/05/03 00:25:18;;;;;;;15.53;14.53;;;7.30;99.90;;;;;;5010413;28;20446;-67
2021/05/03 00:27:44;;;;;;;14.40;13.57;;;7.10;99.90;;;;;;5010373;28;20448;-68
2021/05/03 00:30:12;;;;;;;17.47;16.10;;;7.10;99.90;;;;;;5010073;28;20950;-67
2021/05/03 00:32:38;;;;;;;15.77;14.73;;;7.10;99.90;;;;;;5009915;28;20453;-67
2021/05/03 00:35:06;;;;;;;15.97;14.77;;;7.00;99.90;;;;;;5011555;28;20454;-68
2021/05/03 00:37:32;;;;;;;15.27;14.07;;;7.00;99.90;;;;;;5014089;28;20495;-67
2021/05/03 00:39:59;;;;;;;14.17;13.17;;;7.00;99.90;;;;;;5014362;28;20576;-67
2021/05/03 00:42:25;;;;;;;16.60;15.30;;;7.00;99.90;;;;;;5013921;28;20460;-67
2021/05/03 00:44:51;;;;;;;15.07;14.07;;;7.00;99.90;;;;;;5013730;28;20950;-67
2021/05/03 00:47:18;;;;;;;14.90;13.93;;;7.00;99.90;;;;;;5014052;28;20464;-67
2021/05/03 00:49:44;;;;;;;18.20;16.70;;;7.00;99.90;;;;;;5013839;28;20458;-67
2021/05/03 00:52:12;;;;;;;16.97;15.43;;;6.90;99.90;;;;;;5013832;28;20444;-67
2021/05/03 00:54:38;;;;;;;15.47;14.47;;;7.00;99.90;;;;;;5013502;28;20459;-67
2021/05/03 00:57:05;;;;;;;15.90;14.60;;;7.00;99.90;;;;;;5013880;28;20829;-67
2021/05/03 00:59:32;;;;;;;16.17;15.10;;;7.00;99.90;;;;;;5013920;28;20446;-67
2021/05/03 01:01:58;;;;;;;17.23;15.93;;;7.00;99.90;;;;;;5013191;28;20946;-67
2021/05/03 01:04:24;;;;;;;16.60;15.20;;;7.10;99.90;;;;;;5013400;28;20718;-67
2021/05/03 01:06:50;;;;;;;17.30;16.00;;;7.10;99.90;;;;;;5013595;28;20827;-67
2021/05/03 01:09:18;;;;;;;16.33;15.23;;;7.20;99.90;;;;;;5013693;28;20564;-67
2021/05/03 01:11:44;;;;;;;16.83;15.83;;;7.30;99.90;;;;;;5013128;28;20852;-66
2021/05/03 01:14:11;;;;;;;18.87;17.47;;;7.30;99.90;;;;;;5013301;28;20450;-67
2021/05/03 01:16:37;;;;;;;16.53;15.53;;;7.30;99.90;;;;;;5013079;28;20507;-67
2021/05/03 01:19:03;;;;;;;17.13;15.83;;;7.30;99.90;;;;;;5013547;28;20547;-67
2021/05/03 01:21:30;;;;;;;17.60;16.20;;;7.20;99.90;;;;;;5013156;28;20499;-67
2021/05/03 01:23:57;;;;;;;17.10;15.90;;;7.20;99.90;;;;;;5013020;28;20947;-66
2021/05/03 01:26:23;;;;;;;17.07;15.83;;;7.20;99.90;;;;;;5012871;28;20449;-67
2021/05/03 01:28:49;;;;;;;17.37;15.93;;;7.20;99.90;;;;;;5013101;28;20452;-67
2021/05/03 01:31:16;;;;;;;15.43;14.53;;;7.10;99.90;;;;;;5013110;28;20860;-67
2021/05/03 01:33:43;;;;;;;16.43;15.33;;;7.10;99.90;;;;;;5013092;28;20460;-67
2021/05/03 01:36:09;;;;;;;17.50;16.20;;;7.10;99.90;;;;;;5012876;28;20460;-67
2021/05/03 01:38:36;;;;;;;17.23;15.87;;;7.00;99.90;;;;;;5012849;28;20492;-67
2021/05/03 01:41:02;;;;;;;17.00;15.80;;;7.10;99.90;;;;;;5012916;28;20811;-68
2021/05/03 01:43:29;;;;;;;17.37;16.07;;;7.00;99.90;;;;;;5012944;28;20455;-67
2021/05/03 01:45:57;;;;;;;16.37;15.17;;;6.90;99.90;;;;;;5012206;28;21286;-68
2021/05/03 01:48:25;;;;;;;16.67;15.47;;;7.00;99.90;;;;;;5012588;28;20462;-68
2021/05/03 01:50:52;;;;;;;16.43;15.33;;;6.90;99.90;;;;;;5012616;28;20468;-67
2021/05/03 01:53:19;;;;;;;17.23;16.17;;;6.80;99.90;;;;;;5012832;28;20452;-68
2021/05/03 01:55:49;;;;;;;15.57;14.67;;;6.70;99.90;;;;;;5012294;28;20469;-68
2021/05/03 01:58:15;;;;;;;16.30;15.17;;;6.70;99.90;;;;;;5012563;28;20946;-68
2021/05/03 02:00:42;;;;;;;17.47;16.00;;;6.70;99.90;;;;;;5012635;28;20458;-67
2021/05/03 02:03:17;;;;;;;15.53;14.53;;;6.70;99.90;;;;;;5012297;28;20453;-67
2021/05/03 02:05:43;;;;;;;16.50;15.40;;;6.80;99.90;;;;;;5012301;28;21013;-67
2021/05/03 02:08:09;;;;;;;17.80;16.30;;;6.80;99.90;;;;;;5012162;28;20644;-68
2021/05/03 02:10:37;;;;;;;16.60;15.37;;;6.80;99.90;;;;;;5012217;28;20467;-68
2021/05/03 02:13:04;;;;;;;16.80;15.60;;;6.80;99.90;;;;;;5012491;28;20456;-68
2021/05/03 02:15:32;;;;;;;17.50;16.10;;;6.70;99.90;;;;;;5012415;28;20515;-67
2021/05/03 02:17:58;;;;;;;16.73;15.63;;;6.70;99.90;;;;;;5011873;28;20485;-68
2021/05/03 02:20:25;;;;;;;16.47;15.20;;;6.70;99.90;;;;;;5011734;28;20461;-68
2021/05/03 02:22:51;;;;;;;16.77;15.60;;;6.80;99.90;;;;;;5011761;28;20487;-67
2021/05/03 02:25:17;;;;;;;17.73;16.37;;;6.70;99.90;;;;;;5012182;28;20456;-67
2021/05/03 02:27:43;;;;;;;17.87;16.57;;;6.70;99.90;;;;;;5012072;28;20456;-67
2021/05/03 02:30:12;;;;;;;15.50;14.60;;;6.60;99.90;;;;;;5012111;28;20794;-68
2021/05/03 02:32:39;;;;;;;17.53;16.43;;;6.50;99.90;;;;;;5011508;28;20882;-67
2021/05/03 02:35:08;;;;;;;17.60;16.20;;;6.50;99.90;;;;;;5012219;28;20461;-67
2021/05/03 02:37:34;;;;;;;18.27;16.93;;;6.50;99.90;;;;;;5011801;28;21026;-67
2021/05/03 02:40:01;;;;;;;18.10;16.80;;;6.40;99.90;;;;;;5011874;28;20443;-67
2021/05/03 02:42:27;;;;;;;18.67;17.27;;;6.30;99.90;;;;;;5011567;28;20454;-67
2021/05/03 02:44:53;;;;;;;19.27;17.90;;;6.30;99.90;;;;;;5012038;28;20798;-67
2021/05/03 02:47:20;;;;;;;18.90;17.13;;;6.20;99.90;;;;;;5010483;28;20446;-67
2021/05/03 02:49:47;;;;;;;18.47;17.27;;;6.20;99.90;;;;;;5010578;28;20490;-67
2021/05/03 02:52:13;;;;;;;20.37;18.87;;;6.10;99.90;;;;;;5010617;28;20448;-67
2021/05/03 02:54:39;;;;;;;18.87;17.57;;;6.10;99.90;;;;;;5010249;28;20946;-67
2021/05/03 02:57:06;;;;;;;16.97;15.87;;;6.00;99.90;;;;;;5009866;28;20464;-67
2021/05/03 02:59:32;;;;;;;17.83;16.63;;;6.00;99.90;;;;;;5010004;28;20990;-66
2021/05/03 03:01:58;;;;;;;18.70;17.40;;;6.00;99.90;;;;;;5010247;28;20453;-67
2021/05/03 03:04:25;;;;;;;19.30;17.90;;;5.90;99.90;;;;;;5010373;28;20504;-67
2021/05/03 03:06:51;;;;;;;19.77;18.37;;;5.90;99.90;;;;;;5010429;28;20453;-68
2021/05/03 03:09:18;;;;;;;18.27;16.97;;;5.90;99.90;;;;;;5010175;28;20448;-68
2021/05/03 03:11:46;;;;;;;19.77;18.03;;;5.90;99.90;;;;;;5010302;28;20448;-67
2021/05/03 03:14:13;;;;;;;19.20;17.90;;;5.80;99.90;;;;;;5010073;28;20504;-67
2021/05/03 03:16:40;;;;;;;18.00;16.80;;;6.00;99.90;;;;;;5009767;28;20447;-65
2021/05/03 03:19:06;;;;;;;21.30;19.87;;;5.90;99.90;;;;;;5009647;28;20490;-66
2021/05/03 03:21:34;;;;;;;19.43;18.07;;;5.80;99.90;;;;;;5007328;28;20486;-68
2021/05/03 03:24:00;;;;;;;21.07;19.27;;;5.70;99.90;;;;;;4998678;28;20442;-65
2021/05/03 03:26:26;;;;;;;21.67;19.87;;;5.70;99.90;;;;;;5000494;28;20476;-68
2021/05/03 03:28:52;;;;;;;19.30;17.90;;;5.70;99.90;;;;;;5000336;28;20454;-68
2021/05/03 03:31:18;;;;;;;20.27;18.77;;;5.70;99.90;;;;;;4998885;28;20459;-68
2021/05/03 03:33:45;;;;;;;21.23;19.43;;;5.70;99.90;;;;;;5000490;28;20445;-67
2021/05/03 03:36:11;;;;;;;21.13;19.57;;;5.70;99.90;;;;;;4995658;28;20460;-68
2021/05/03 03:38:38;;;;;;;20.57;19.00;;;5.70;99.90;;;;;;4999148;28;20499;-67
2021/05/03 03:41:05;;;;;;;20.20;18.60;;;5.70;99.90;;;;;;4999279;28;20440;-66
2021/05/03 03:43:31;;;;;;;22.23;20.47;;;5.60;99.90;;;;;;5000754;28;20454;-66
2021/05/03 03:45:57;;;;;;;20.27;18.67;;;5.60;99.90;;;;;;4999091;28;20471;-65
2021/05/03 03:48:23;;;;;;;21.30;19.63;;;5.60;99.90;;;;;;4998910;28;20465;-68
2021/05/03 03:50:49;;;;;;;22.07;20.30;;;5.60;99.90;;;;;;5000678;28;20446;-68
2021/05/03 03:53:16;;;;;;;20.10;18.50;;;5.70;99.90;;;;;;4998806;28;20515;-68
2021/05/03 03:55:43;;;;;;;20.07;18.20;;;5.70;99.90;;;;;;4999418;28;20455;-68
2021/05/03 03:58:09;;;;;;;22.90;20.73;;;5.70;99.90;;;;;;5000257;28;20582;-68
2021/05/03 04:00:36;;;;;;;20.80;19.27;;;5.70;99.90;;;;;;4998486;28;20451;-67
2021/05/03 04:03:05;;;;;;;20.83;19.23;;;5.70;99.90;;;;;;4999254;28;20480;-68
2021/05/03 04:05:42;;;;;;;23.67;21.33;;;5.70;99.90;;;;;;5000583;28;20442;-66
2021/05/03 04:08:12;;;;;;;22.07;20.37;;;5.70;99.90;;;;;;5000141;28;20489;-66
2021/05/03 04:10:50;;;;;;;23.23;21.23;;;5.70;99.90;;;;;;5000044;28;20495;-68
2021/05/03 04:21:53;;;;;;;22.47;20.70;;;5.60;99.90;;;;;;4938562;29;20529;-68
2021/05/03 04:24:23;;;;;;;24.17;21.87;;;5.60;99.90;;;;;;4938398;29;20452;-68
2021/05/03 04:26:49;;;;;;;23.90;21.90;;;5.60;99.90;;;;;;4972120;28;20446;-68
2021/05/03 04:29:16;;;;;;;24.27;22.27;;;5.70;99.90;;;;;;5000525;28;20500;-68
2021/05/03 04:31:42;;;;;;;23.77;22.00;;;5.70;99.90;;;;;;4999442;28;20548;-68
2021/05/03 04:34:08;;;;;;;25.60;23.63;;;5.70;99.90;;;;;;4997900;28;20455;-65
2021/05/03 04:36:35;;;;;;;25.43;23.00;;;5.70;99.90;;;;;;5000295;28;20445;-66
2021/05/03 04:39:01;;;;;;;22.17;20.40;;;5.70;99.90;;;;;;4999078;28;20482;-66
2021/05/03 04:41:28;;;;;;;23.27;21.30;;;5.70;99.90;;;;;;4998080;28;20948;-67
2021/05/03 04:43:54;;;;;;;24.13;22.03;;;5.70;99.90;;;;;;5000070;28;20508;-67
2021/05/03 04:46:21;;;;;;;21.73;20.20;;;5.70;99.90;;;;;;4998773;28;20925;-66
2021/05/03 04:48:49;;;;;;;23.77;21.97;;;5.70;99.90;;;;;;4998254;28;20453;-67
2021/05/03 04:51:15;;;;;;;23.30;21.50;;;5.80;99.90;;;;;;5007287;28;20458;-66
2021/05/03 04:53:42;;;;;;;23.70;21.57;;;5.90;99.90;;;;;;5010016;28;20446;-66
2021/05/03 04:56:08;;;;;;;21.03;19.23;;;6.10;99.90;;;;;;5009869;28;20447;-66
2021/05/03 04:58:34;;;;;;;23.57;21.80;;;6.30;99.90;;;;;;5009999;28;20474;-69
2021/05/03 05:01:00;;;;;;;23.47;21.77;;;6.60;99.90;;;;;;5010158;28;20445;-66
2021/05/03 05:03:27;;;;;;;22.87;20.77;;;6.90;99.90;;;;;;5009959;28;20453;-67
2021/05/03 05:05:54;;;;;;;22.73;20.87;;;7.00;99.90;;;;;;5010031;28;20790;-67
2021/05/03 05:08:21;;;;;;;23.27;21.37;;;6.90;99.90;;;;;;5009761;28;20452;-68
2021/05/03 05:10:47;;;;;;;23.40;21.43;;;6.80;99.90;;;;;;5010021;28;20509;-68
2021/05/03 05:13:14;;;;;;;23.07;21.17;;;6.80;99.90;;;;;;5009855;28;20511;-68
2021/05/03 05:15:40;;;;;;;23.67;21.57;;;6.80;99.90;;;;;;5009844;28;20450;-68
2021/05/03 05:18:06;;;;;;;23.80;21.90;;;6.80;99.90;;;;;;5010066;28;20483;-67
2021/05/03 05:20:34;;;;;;;22.27;20.30;;;6.90;99.90;;;;;;5010082;28;20835;-68
2021/05/03 05:23:03;;;;;;;21.20;19.60;;;6.90;99.90;;;;;;5013386;28;20488;-69
2021/05/03 05:25:30;;;;;;;19.47;18.00;;;6.80;99.90;;;;;;5013475;28;20445;-67
2021/05/03 05:27:56;;;;;;;21.80;19.90;;;6.90;99.90;;;;;;5013302;28;20779;-68
2021/05/03 05:30:22;;;;;;;23.03;21.30;;;7.10;99.90;;;;;;5013157;28;20467;-69
2021/05/03 05:32:49;;;;;;;23.27;21.33;;;7.20;99.90;;;;;;5013290;28;20457;-70
2021/05/03 05:35:15;;;;;;;20.80;19.10;;;7.40;99.90;;;;;;5013398;28;20505;-67
2021/05/03 05:37:42;;;;;;;19.30;17.80;;;7.80;99.90;;;;;;5013257;28;20661;-69
2021/05/03 05:40:09;;;;;;;20.37;18.67;;;8.10;99.90;;;;;;5013054;28;20453;-69
2021/05/03 05:42:35;;;;;;;21.17;19.20;;;8.30;99.90;;;;;;5013220;28;20476;-71
2021/05/03 05:45:02;;;;;;;21.43;19.90;;;8.30;99.90;;;;;;5013164;28;20458;-69
2021/05/03 05:47:28;;;;;;;23.00;21.20;;;8.20;99.90;;;;;;5012554;28;20461;-67
2021/05/03 05:49:54;;;;;;;20.80;19.40;;;8.00;99.90;;;;;;5012926;28;20999;-69
2021/05/03 05:52:21;;;;;;;21.00;19.40;;;7.90;99.90;;;;;;5012695;28;20450;-68
2021/05/03 05:54:48;;;;;;;21.23;19.63;;;7.90;99.90;;;;;;5013026;28;20458;-69
2021/05/03 05:57:14;;;;;;;21.27;19.30;;;7.80;99.90;;;;;;5012950;28;20450;-69
2021/05/03 05:59:41;;;;;;;23.53;21.63;;;7.60;99.90;;;;;;5012451;28;20493;-69
2021/05/03 06:02:07;;;;;;;23.27;20.90;;;7.60;99.90;;;;;;5012485;28;20441;-69
2021/05/03 06:04:36;;;;;;;20.77;19.10;;;7.70;99.90;;;;;;5012863;28;20457;-70
2021/05/03 06:07:02;;;;;;;21.53;20.10;;;7.60;99.90;;;;;;5012812;28;20457;-69
2021/05/03 06:09:28;;;;;;;22.43;20.73;;;7.80;99.90;;;;;;5012332;28;20465;-68
2021/05/03 06:11:55;;;;;;;20.57;19.10;;;8.40;99.90;;;;;;5012597;28;20703;-71
2021/05/03 06:14:21;;;;;;;20.53;19.03;;;9.10;99.90;;;;;;5007135;28;20469;-70
2021/05/03 06:16:48;;;;;;;20.60;18.90;;;9.50;99.90;;;;;;5001496;28;20451;-71
2021/05/03 06:19:14;;;;;;;21.23;19.63;;;9.90;99.90;;;;;;5003734;28;20891;-71
2021/05/03 06:21:41;;;;;;;18.47;17.17;;;10.20;99.90;;;;;;5012038;28;21056;-71
2021/05/03 06:24:08;;;;;;;18.90;17.50;;;10.70;99.90;;;;;;4996143;28;20451;-70
2021/05/03 06:26:34;;;;;;;20.57;19.07;;;11.10;99.90;;;;;;5005656;28;20469;-72
2021/05/03 06:29:02;;;;;;;20.03;18.70;;;11.30;99.90;;;;;;5012439;28;20453;-73
2021/05/03 06:31:31;;;;;;;19.80;18.50;;;11.40;99.90;;;;;;5011840;28;20492;-71
2021/05/03 06:33:57;;;;;;;19.63;18.33;;;11.60;99.90;;;;;;5011224;28;20953;-72
2021/05/03 06:36:23;;;;;;;21.80;20.00;;;11.60;99.90;;;;;;5011808;28;20468;-71
2021/05/03 06:38:49;;;;;;;19.63;18.33;;;11.70;99.90;;;;;;5010280;28;20477;-71
2021/05/03 06:41:16;;;;;;;18.73;17.50;;;12.10;99.90;;;;;;5012047;28;20463;-71
2021/05/03 06:43:42;;;;;;;20.43;19.17;;;12.10;99.90;;;;;;5011540;28;20480;-72
2021/05/03 06:46:09;;;;;;;20.73;19.23;;;12.00;99.90;;;;;;5011382;28;20453;-70
2021/05/03 06:48:35;;;;;;;19.30;17.90;;;12.00;99.90;;;;;;5011807;28;20453;-71
2021/05/03 06:51:01;;;;;;;20.23;18.57;;;11.90;99.50;;;;;;5011651;28;20450;-71
2021/05/03 06:53:28;;;;;;;18.50;17.13;;;12.40;99.40;;;;;;5011328;28;20464;-71
2021/05/03 06:55:54;;;;;;;18.60;17.40;;;12.80;98.90;;;;;;5011364;28;20446;-73
2021/05/03 06:58:20;;;;;;;20.60;19.33;;;12.90;98.10;;;;;;5011609;28;20818;-72
2021/05/03 07:00:46;;;;;;;20.00;18.70;;;13.30;97.00;;;;;;5011921;28;20897;-71
2021/05/03 07:03:13;;;;;;;18.30;17.13;;;13.70;96.50;;;;;;5011229;28;20458;-71
2021/05/03 07:05:40;;;;;;;19.17;17.87;;;14.20;95.10;;;;;;5010987;28;20830;-72
2021/05/03 07:08:08;;;;;;;18.20;17.10;;;14.60;94.10;;;;;;5010913;28;20454;-72
2021/05/03 07:10:37;;;;;;;19.30;18.20;;;14.50;92.50;;;;;;5011446;28;20458;-70
2021/05/03 07:13:04;;;;;;;17.90;16.90;;;14.30;92.60;;;;;;5011575;28;20490;-71
2021/05/03 07:15:30;;;;;;;17.87;16.83;;;14.30;92.40;;;;;;5011033;28;20450;-71
2021/05/03 07:17:57;;;;;;;17.13;16.23;;;14.60;91.80;;;;;;5010948;28;20450;-71
2021/05/03 07:20:24;;;;;;;19.40;18.00;;;15.00;91.20;;;;;;5010922;28;20470;-71
2021/05/03 07:22:50;;;;;;;17.23;16.20;;;15.40;91.20;;;;;;5010732;28;21003;-71
2021/05/03 07:25:16;;;;;;;18.10;17.10;;;15.40;90.50;;;;;;5011367;28;20442;-71
2021/05/03 07:27:43;;;;;;;16.60;15.60;;;15.90;89.00;;;;;;5010881;28;20457;-71
2021/05/03 07:30:11;;;;;;;17.20;16.20;;;16.10;86.20;;;;;;5010651;28;20454;-74
2021/05/03 07:32:37;;;;;;;19.73;18.13;;;16.20;86.40;;;;;;5010696;28;20449;-71
2021/05/03 07:35:05;;;;;;;16.90;15.80;;;16.40;84.90;;;;;;5011146;28;20452;-72
2021/05/03 07:37:32;;;;;;;17.80;16.80;;;16.60;83.70;;;;;;5011114;28;20457;-72
2021/05/03 07:39:59;;;;;;;18.77;17.50;;;16.80;83.10;;;;;;5010681;28;20821;-72
2021/05/03 07:42:25;;;;;;;18.17;17.07;;;16.60;83.00;;;;;;5010807;28;20456;-72
2021/05/03 07:44:51;;;;;;;20.40;18.93;;;16.90;82.40;;;;;;5010274;28;20861;-72
2021/05/03 07:47:18;;;;;;;18.97;17.50;;;17.60;81.50;;;;;;5010833;28;20936;-72
2021/05/03 07:49:44;;;;;;;20.17;18.87;;;17.50;82.60;;;;;;5010773;28;20438;-73
2021/05/03 07:52:10;;;;;;;19.20;18.07;;;17.90;80.10;;;;;;5010129;28;20442;-72
2021/05/03 07:54:37;;;;;;;18.30;17.20;;;17.70;79.50;;;;;;5009991;28;20461;-73
2021/05/03 07:57:04;;;;;;;18.33;17.40;;;17.40;80.50;;;;;;5010434;28;20556;-73
2021/05/03 07:59:30;;;;;;;20.30;19.03;;;17.80;79.20;;;;;;5010602;28;20482;-73
2021/05/03 08:01:56;;;;;;;18.10;16.97;;;17.70;78.70;;;;;;5010415;28;20477;-73
2021/05/03 08:04:23;;;;;;;18.80;17.40;;;17.50;79.80;;;;;;5010299;28;20461;-73
2021/05/03 08:06:51;;;;;;;17.90;17.00;;;17.50;80.30;;;;;;5010469;28;20450;-74
2021/05/03 08:09:18;;;;;;;18.03;16.83;;;17.20;78.20;;;;;;5010617;28;20446;-73
2021/05/03 08:11:45;;;;;;;19.27;17.93;;;16.20;80.40;;;;;;5010617;28;20519;-72
2021/05/03 08:14:15;;;;;;;17.47;16.47;;;15.40;83.90;;;;;;5010491;28;20445;-73
2021/05/03 08:16:41;;;;;;;17.47;16.27;;;15.30;84.30;;;;;;5010156;28;20462;-72
2021/05/03 08:19:07;;;;;;;17.93;16.87;;;15.30;86.30;;;;;;5010097;28;20489;-72
2021/05/03 08:21:33;;;;;;;17.20;16.30;;;15.20;87.20;;;;;;5010400;28;20508;-73
2021/05/03 08:24:00;;;;;;;17.03;16.00;;;15.50;86.80;;;;;;5010306;28;20449;-73
2021/05/03 08:26:26;;;;;;;18.27;17.10;;;15.90;84.30;;;;;;5010466;28;20457;-72
2021/05/03 08:28:53;;;;;;;17.10;16.20;;;15.50;84.80;;;;;;5009928;28;20508;-72
2021/05/03 08:31:19;;;;;;;17.77;16.47;;;15.30;84.60;;;;;;5010281;28;20453;-72
2021/05/03 08:33:46;;;;;;;17.80;16.10;;;15.50;82.60;;;;;;5010470;28;20458;-72
2021/05/03 08:36:12;;;;;;;16.10;15.10;;;15.50;83.60;;;;;;5010032;28;20827;-72
2021/05/03 08:38:39;;;;;;;17.40;16.20;;;15.40;83.60;;;;;;5010273;28;20508;-72
2021/05/03 08:41:05;;;;;;;16.80;15.80;;;15.00;83.60;;;;;;5010399;28;20453;-72
2021/05/03 08:43:33;;;;;;;16.93;16.03;;;14.90;83.00;;;;;;5010476;28;20450;-72
2021/05/03 08:46:00;;;;;;;15.60;14.80;;;14.40;82.90;;;;;;5010537;28;20487;-72
2021/05/03 08:48:33;;;;;;;15.80;14.90;;;14.30;85.00;;;;;;5009877;28;20832;-72
2021/05/03 08:51:07;;;;;;;16.00;15.10;;;14.80;86.10;;;;;;5010105;28;21024;-71
2021/05/03 08:53:36;;;;;;;16.90;15.80;;;15.20;83.00;;;;;;5010214;28;20461;-71
2021/05/03 08:56:03;;;;;;;15.40;14.40;;;15.70;80.70;;;;;;5011547;28;20465;-72
2021/05/03 08:58:30;;;;;;;17.50;16.30;;;16.70;79.30;;;;;;5013769;28;20497;-72
2021/05/03 09:00:56;;;;;;;18.00;16.90;;;17.50;75.00;;;;;;5013515;28;20581;-71
2021/05/03 09:03:24;;;;;;;16.87;15.90;;;17.50;74.30;;;;;;5013545;28;20464;-72
2021/05/03 09:05:50;;;;;;;16.27;15.27;;;17.10;74.10;;;;;;5013929;28;20449;-72
2021/05/03 09:08:23;;;;;;;16.17;15.27;;;16.90;74.90;;;;;;5013810;28;20449;-72
2021/05/03 09:10:50;;;;;;;16.60;15.70;;;16.90;75.50;;;;;;5014293;28;20460;-72
2021/05/03 09:13:17;;;;;;;17.03;16.10;;;16.80;75.10;;;;;;5014029;28;20454;-72
2021/05/03 09:15:44;;;;;;;17.33;16.17;;;16.90;75.50;;;;;;5014072;28;20583;-73
2021/05/03 09:18:11;;;;;;;16.73;15.73;;;16.70;74.50;;;;;;5013460;28;20968;-73
2021/05/03 09:20:39;;;;;;;16.20;15.30;;;16.50;73.60;;;;;;5013454;28;20500;-71
2021/05/03 09:23:08;;;;;;;17.77;16.77;;;17.40;73.10;;;;;;5013669;28;20481;-72
2021/05/03 09:25:36;;;;;;;19.90;18.50;;;17.50;71.60;;;;;;5014138;28;20539;-72
2021/05/03 09:28:09;;;;;;;17.53;16.63;;;17.40;71.70;;;;;;5013618;28;20520;-72
2021/05/03 09:30:39;;;;;;;18.50;17.40;;;17.90;71.00;;;;;;5013605;28;20519;-71
2021/05/03 09:33:27;;;;;;;18.97;17.87;;;19.20;67.40;;;;;;5013469;28;20446;-72
2021/05/03 09:35:55;;;;;;;18.63;17.63;;;18.60;66.80;;;;;;5002856;28;20466;-73
2021/05/03 09:38:30;;;;;;;17.70;16.57;;;17.40;68.20;;;;;;5001343;28;20489;-72
2021/05/03 09:41:10;;;;;;;18.03;17.03;;;16.20;72.60;;;;;;5001737;28;20445;-72
2021/05/03 09:43:37;;;;;;;16.63;15.50;;;15.20;74.80;;;;;;5002691;28;20446;-72
2021/05/03 09:46:31;;;;;;;17.50;16.40;;;14.70;76.10;;;;;;5003016;28;20454;-72
2021/05/03 09:49:00;;;;;;;17.87;16.70;;;14.50;76.80;;;;;;5003008;28;20450;-72
2021/05/03 09:51:31;;;;;;;16.97;15.97;;;14.40;77.30;;;;;;5001567;28;20485;-73
2021/05/03 09:54:05;;;;;;;15.73;14.73;;;14.30;77.80;;;;;;5000967;28;20449;-72
2021/05/03 09:56:54;;;;;;;18.40;17.30;;;14.60;77.10;;;;;;5002759;28;20936;-72
2021/05/03 09:59:29;;;;;;;16.47;15.13;;;14.20;76.30;;;;;;5002812;28;20810;-72
2021/05/03 10:02:07;;;;;;;17.87;16.53;;;14.20;78.90;;;;;;5000792;28;21146;-72
2021/05/03 10:04:34;;;;;;;19.47;18.07;;;14.60;78.10;;;;;;5002594;28;20565;-74
2021/05/03 10:07:03;;;;;;;18.27;17.10;;;15.00;76.60;;;;;;5002251;28;20493;-73
2021/05/03 10:09:30;;;;;;;17.40;16.50;;;15.60;75.40;;;;;;5001069;28;20450;-72
2021/05/03 10:11:57;;;;;;;16.97;15.73;;;15.60;74.20;;;;;;5000650;28;20453;-72
2021/05/03 10:14:23;;;;;;;16.87;15.80;;;15.60;73.70;;;;;;5002369;28;20442;-72
2021/05/03 10:16:50;;;;;;;16.83;15.73;;;15.80;74.30;;;;;;4992743;28;20454;-73
2021/05/03 10:19:19;;;;;;;16.10;15.00;;;16.40;73.50;;;;;;4993149;28;20486;-72
2021/05/03 10:21:46;;;;;;;15.67;14.77;;;16.80;70.80;;;;;;5000160;28;20512;-71
2021/05/03 10:24:15;;;;;;;16.87;15.80;;;16.50;71.30;;;;;;5012368;28;20461;-72
2021/05/03 10:26:42;;;;;;;15.87;14.77;;;17.20;70.50;;;;;;5011998;28;20446;-72
2021/05/03 10:29:23;;;;;;;15.57;14.83;;;16.80;68.80;;;;;;5012166;28;20442;-72
2021/05/03 10:31:58;;;;;;;15.33;14.53;;;16.70;68.70;;;;;;5012439;28;20491;-72
2021/05/03 10:34:40;;;;;;;17.60;16.17;;;17.00;68.80;;;;;;5012285;28;20457;-72
2021/05/03 10:37:42;;;;;;;16.10;14.93;;;16.80;67.90;;;;;;5012213;28;20457;-70
2021/05/03 10:40:46;;;;;;;15.93;14.80;;;16.70;68.80;;;;;;5012163;28;20987;-72
2021/05/03 10:43:15;;;;;;;15.83;15.03;;;17.90;66.50;;;;;;5012211;28;20453;-72
2021/05/03 10:45:49;;;;;;;15.33;14.50;;;18.50;63.50;;;;;;5011699;28;20465;-72
2021/05/03 10:48:34;;;;;;;16.17;15.37;;;19.40;61.30;;;;;;5012211;28;20556;-72
2021/05/03 10:51:01;;;;;;;16.83;15.73;;;19.20;60.80;;;;;;5012350;28;20450;-72
2021/05/03 10:53:33;;;;;;;16.00;14.97;;;18.80;59.10;;;;;;5011843;28;20504;-72
2021/05/03 10:56:02;;;;;;;15.73;14.97;;;18.10;60.20;;;;;;5011815;28;20888;-73
2021/05/03 10:58:29;;;;;;;15.23;14.43;;;18.00;62.40;;;;;;5011309;28;20497;-72
2021/05/03 11:00:58;;;;;;;15.30;14.60;;;17.90;61.00;;;;;;5008918;28;20613;-72
2021/05/03 11:04:01;;;;;;;16.10;15.30;;;17.90;61.20;;;;;;5001934;28;20443;-72
2021/05/03 11:07:09;;;;;;;15.90;14.80;;;17.80;61.60;;;;;;4998401;28;20442;-72
2021/05/03 11:09:39;;;;;;;13.57;12.97;;;17.00;59.50;;;;;;4995949;28;20454;-72
2021/05/03 11:12:31;;;;;;;14.60;13.90;;;16.70;59.10;;;;;;5011632;28;20458;-71
2021/05/03 11:15:18;;;;;;;15.70;14.60;;;16.10;59.90;;;;;;5011649;28;20457;-72
2021/05/03 11:18:16;;;;;;;15.30;14.03;;;16.30;61.10;;;;;;5011155;28;20815;-73
2021/05/03 11:21:01;;;;;;;14.73;14.03;;;16.80;61.10;;;;;;4991874;28;20471;-73
2021/05/03 11:23:29;;;;;;;15.73;14.83;;;18.30;60.40;;;;;;4991806;28;20482;-72
2021/05/03 11:25:56;;;;;;;15.17;14.47;;;20.00;56.70;;;;;;4992025;28;20455;-74
2021/05/03 11:28:27;;;;;;;14.30;13.60;;;19.80;53.90;;;;;;4992070;28;20454;-72
2021/05/03 11:30:58;;;;;;;15.80;14.90;;;19.60;53.30;;;;;;4991869;28;20585;-72
2021/05/03 11:33:41;;;;;;;16.30;14.83;;;18.20;55.00;;;;;;4991889;28;20768;-72
2021/05/03 11:36:10;;;;;;;15.00;14.10;;;17.00;57.60;;;;;;5003007;28;20964;-72
2021/05/03 11:38:49;;;;;;;15.23;14.33;;;17.00;59.30;;;;;;5011209;28;20489;-71
2021/05/03 11:41:26;;;;;;;14.30;13.60;;;17.00;57.90;;;;;;5011289;28;20529;-71
2021/05/03 11:43:58;;;;;;;14.23;13.53;;;16.70;58.20;;;;;;5011130;28;20460;-72
2021/05/03 11:46:31;;;;;;;14.77;13.80;;;16.30;58.60;;;;;;5011205;28;20462;-72
2021/05/03 11:48:59;;;;;;;15.10;14.30;;;16.40;58.60;;;;;;5011230;28;20562;-72
2021/05/03 11:51:26;;;;;;;14.10;13.43;;;16.90;58.80;;;;;;5011046;28;20462;-72
2021/05/03 11:53:52;;;;;;;14.57;13.80;;;17.80;57.40;;;;;;5011151;28;20450;-71
2021/05/03 11:56:25;;;;;;;13.90;13.20;;;18.70;54.50;;;;;;5011438;28;20800;-71
2021/05/03 11:58:54;;;;;;;15.77;15.07;;;19.90;54.50;;;;;;5010900;28;20853;-72
2021/05/03 12:01:22;;;;;;;16.10;15.30;;;21.80;50.80;;;;;;5011038;28;20450;-71
2021/05/03 12:03:51;;;;;;;14.13;13.43;;;21.50;48.30;;;;;;5011012;28;20461;-71
2021/05/03 12:06:37;;;;;;;14.60;13.90;;;21.00;49.70;;;;;;5010934;28;20461;-71
2021/05/03 12:09:05;;;;;;;14.33;13.63;;;20.40;50.60;;;;;;5010862;28;20493;-71
2021/05/03 12:11:31;;;;;;;15.33;14.53;;;19.90;49.40;;;;;;5010661;28;20831;-71
2021/05/03 12:13:58;;;;;;;14.50;13.73;;;19.60;51.10;;;;;;5010577;28;20461;-72
2021/05/03 12:16:33;;;;;;;13.53;12.93;;;19.10;51.00;;;;;;5010684;28;20942;-71
2021/05/03 12:18:59;;;;;;;13.80;13.10;;;18.90;50.70;;;;;;5010905;28;20485;-71
2021/05/03 12:21:25;;;;;;;14.37;13.47;;;18.70;50.80;;;;;;5010226;28;20492;-71
2021/05/03 12:23:52;;;;;;;13.63;12.50;;;18.40;51.00;;;;;;5010909;28;20443;-71
2021/05/03 12:26:18;;;;;;;13.53;12.97;;;18.00;50.10;;;;;;5010756;28;20461;-71
2021/05/03 12:28:44;;;;;;;12.97;12.37;;;17.50;50.90;;;;;;5010866;28;20450;-71
2021/05/03 12:31:12;;;;;;;13.07;12.47;;;16.90;50.20;;;;;;5011922;28;20454;-70
2021/05/03 12:33:39;;;;;;;13.10;12.50;;;17.00;51.00;;;;;;5014584;28;20450;-70
2021/05/03 12:36:09;;;;;;;14.27;13.50;;;17.40;51.50;;;;;;5004280;28;20843;-70
2021/05/03 12:38:36;;;;;;;13.93;13.17;;;18.10;51.90;;;;;;4994753;28;20545;-70
2021/05/03 12:41:04;;;;;;;13.23;12.63;;;19.20;49.20;;;;;;4994649;28;20446;-71
2021/05/03 12:43:34;;;;;;;13.10;12.50;;;19.60;48.60;;;;;;4994734;28;20459;-71
2021/05/03 12:46:05;;;;;;;11.90;11.30;;;19.20;47.10;;;;;;4994672;28;20458;-71